sensor_id;sensor_type;location;lat;lon;timestamp;P1;durP1;ratioP1;P2;durP2;ratioP2
79403;SDS011;68858;48.642;9.142;2023-10-19T00:01:53;19.40;;;16.23;;
79403;SDS011;68858;48.642;9.142;2023-10-19T00:04:19;17.17;;;14.70;;
79403;SDS011;68858;48.642;9.142;2023-10-19T00:06:47;16.73;;;14.60;;
79403;SDS011;68858;48.642;9.142;2023-10-19T00:09:13;17.63;;;15.83;;
79403;SDS011;68858;48.642;9.142;2023-10-19T00:11:40;20.40;;;16.27;;
79403;SDS011;68858;48.642;9.142;2023-10-19T00:14:05;21.50;;;16.13;;
79403;SDS011;68858;48.642;9.142;2023-10-19T00:16:40;17.17;;;15.37;;
79403;SDS011;68858;48.642;9.142;2023-10-19T00:19:09;20.20;;;15.80;;
79403;SDS011;68858;48.642;9.142;2023-10-19T00:21:34;19.27;;;16.10;;
79403;SDS011;68858;48.642;9.142;2023-10-19T00:24:16;17.73;;;15.27;;
79403;SDS011;68858;48.642;9.142;2023-10-19T00:26:43;18.10;;;14.33;;
79403;SDS011;68858;48.642;9.142;2023-10-19T00:29:13;17.60;;;14.83;;
79403;SDS011;68858;48.642;9.142;2023-10-19T00:31:58;17.67;;;14.83;;
79403;SDS011;68858;48.642;9.142;2023-10-19T00:34:24;16.27;;;14.57;;
79403;SDS011;68858;48.642;9.142;2023-10-19T00:36:50;15.50;;;13.90;;
79403;SDS011;68858;48.642;9.142;2023-10-19T00:39:16;18.80;;;14.43;;
79403;SDS011;68858;48.642;9.142;2023-10-19T00:41:46;14.70;;;12.97;;
79403;SDS011;68858;48.642;9.142;2023-10-19T00:44:12;16.90;;;13.17;;
79403;SDS011;68858;48.642;9.142;2023-10-19T00:46:47;15.90;;;13.00;;
79403;SDS011;68858;48.642;9.142;2023-10-19T00:49:18;19.43;;;14.67;;
79403;SDS011;68858;48.642;9.142;2023-10-19T00:51:49;15.13;;;13.63;;
79403;SDS011;68858;48.642;9.142;2023-10-19T00:54:28;18.37;;;14.37;;
79403;SDS011;68858;48.642;9.142;2023-10-19T00:57:01;16.67;;;13.90;;
79403;SDS011;68858;48.642;9.142;2023-10-19T00:59:40;15.90;;;14.20;;
79403;SDS011;68858;48.642;9.142;2023-10-19T01:02:12;14.27;;;12.73;;
79403;SDS011;68858;48.642;9.142;2023-10-19T01:04:54;14.20;;;10.30;;
79403;SDS011;68858;48.642;9.142;2023-10-19T01:07:30;12.47;;;9.37;;
79403;SDS011;68858;48.642;9.142;2023-10-19T01:10:02;10.23;;;9.03;;
79403;SDS011;68858;48.642;9.142;2023-10-19T01:12:33;10.30;;;8.27;;
79403;SDS011;68858;48.642;9.142;2023-10-19T01:15:05;11.73;;;8.57;;
79403;SDS011;68858;48.642;9.142;2023-10-19T01:17:49;9.40;;;8.10;;
79403;SDS011;68858;48.642;9.142;2023-10-19T01:20:19;8.90;;;8.00;;
79403;SDS011;68858;48.642;9.142;2023-10-19T01:23:08;9.50;;;7.40;;
79403;SDS011;68858;48.642;9.142;2023-10-19T01:25:53;10.70;;;7.53;;
79403;SDS011;68858;48.642;9.142;2023-10-19T01:28:23;8.37;;;6.33;;
79403;SDS011;68858;48.642;9.142;2023-10-19T01:30:53;8.07;;;6.90;;
79403;SDS011;68858;48.642;9.142;2023-10-19T01:33:22;8.03;;;6.00;;
79403;SDS011;68858;48.642;9.142;2023-10-19T01:35:48;8.47;;;6.40;;
79403;SDS011;68858;48.642;9.142;2023-10-19T01:38:32;7.33;;;6.37;;
79403;SDS011;68858;48.642;9.142;2023-10-19T01:40:59;10.73;;;5.97;;
79403;SDS011;68858;48.642;9.142;2023-10-19T01:43:25;8.33;;;6.60;;
79403;SDS011;68858;48.642;9.142;2023-10-19T01:45:56;11.50;;;7.83;;
79403;SDS011;68858;48.642;9.142;2023-10-19T01:48:22;9.50;;;7.60;;
79403;SDS011;68858;48.642;9.142;2023-10-19T01:50:57;8.77;;;6.90;;
79403;SDS011;68858;48.642;9.142;2023-10-19T01:53:23;8.30;;;7.00;;
79403;SDS011;68858;48.642;9.142;2023-10-19T01:55:50;9.87;;;6.77;;
79403;SDS011;68858;48.642;9.142;2023-10-19T01:58:22;8.57;;;7.10;;
79403;SDS011;68858;48.642;9.142;2023-10-19T02:00:51;10.00;;;7.60;;
79403;SDS011;68858;48.642;9.142;2023-10-19T02:03:20;9.80;;;7.60;;
79403;SDS011;68858;48.642;9.142;2023-10-19T02:05:56;8.30;;;7.20;;
79403;SDS011;68858;48.642;9.142;2023-10-19T02:08:25;8.23;;;7.30;;
79403;SDS011;68858;48.642;9.142;2023-10-19T02:10:52;10.57;;;8.23;;
79403;SDS011;68858;48.642;9.142;2023-10-19T02:13:19;10.43;;;8.00;;
79403;SDS011;68858;48.642;9.142;2023-10-19T02:15:44;8.73;;;7.37;;
79403;SDS011;68858;48.642;9.142;2023-10-19T02:18:10;10.93;;;7.73;;
79403;SDS011;68858;48.642;9.142;2023-10-19T02:20:36;9.53;;;8.03;;
79403;SDS011;68858;48.642;9.142;2023-10-19T02:23:06;11.23;;;8.20;;
79403;SDS011;68858;48.642;9.142;2023-10-19T02:25:32;11.53;;;8.67;;
79403;SDS011;68858;48.642;9.142;2023-10-19T02:28:03;10.73;;;8.87;;
79403;SDS011;68858;48.642;9.142;2023-10-19T02:30:31;8.30;;;7.40;;
79403;SDS011;68858;48.642;9.142;2023-10-19T02:32:58;8.30;;;7.07;;
79403;SDS011;68858;48.642;9.142;2023-10-19T02:35:25;7.33;;;6.50;;
79403;SDS011;68858;48.642;9.142;2023-10-19T02:37:52;10.10;;;5.83;;
79403;SDS011;68858;48.642;9.142;2023-10-19T02:40:18;5.63;;;5.00;;
79403;SDS011;68858;48.642;9.142;2023-10-19T02:42:50;5.37;;;4.83;;
79403;SDS011;68858;48.642;9.142;2023-10-19T02:45:15;6.00;;;5.40;;
79403;SDS011;68858;48.642;9.142;2023-10-19T02:47:43;6.13;;;5.40;;
79403;SDS011;68858;48.642;9.142;2023-10-19T02:50:12;7.30;;;6.10;;
79403;SDS011;68858;48.642;9.142;2023-10-19T02:52:47;8.00;;;6.13;;
79403;SDS011;68858;48.642;9.142;2023-10-19T02:55:13;6.27;;;5.50;;
79403;SDS011;68858;48.642;9.142;2023-10-19T02:57:41;7.70;;;5.57;;
79403;SDS011;68858;48.642;9.142;2023-10-19T03:00:07;6.63;;;5.50;;
79403;SDS011;68858;48.642;9.142;2023-10-19T03:02:40;7.13;;;5.10;;
79403;SDS011;68858;48.642;9.142;2023-10-19T03:05:05;6.60;;;5.03;;
79403;SDS011;68858;48.642;9.142;2023-10-19T03:07:43;6.23;;;5.63;;
79403;SDS011;68858;48.642;9.142;2023-10-19T03:10:10;7.47;;;5.17;;
79403;SDS011;68858;48.642;9.142;2023-10-19T03:12:49;5.90;;;4.43;;
79403;SDS011;68858;48.642;9.142;2023-10-19T03:15:15;5.87;;;4.33;;
79403;SDS011;68858;48.642;9.142;2023-10-19T03:17:42;7.00;;;5.70;;
79403;SDS011;68858;48.642;9.142;2023-10-19T03:20:07;5.93;;;4.43;;
79403;SDS011;68858;48.642;9.142;2023-10-19T03:22:35;5.50;;;4.80;;
79403;SDS011;68858;48.642;9.142;2023-10-19T03:25:03;8.63;;;4.83;;
79403;SDS011;68858;48.642;9.142;2023-10-19T03:27:48;5.27;;;4.73;;
79403;SDS011;68858;48.642;9.142;2023-10-19T03:30:14;5.87;;;4.47;;
79403;SDS011;68858;48.642;9.142;2023-10-19T03:32:42;7.67;;;5.67;;
79403;SDS011;68858;48.642;9.142;2023-10-19T03:35:07;5.70;;;5.10;;
79403;SDS011;68858;48.642;9.142;2023-10-19T03:37:32;6.00;;;5.40;;
79403;SDS011;68858;48.642;9.142;2023-10-19T03:40:01;6.00;;;5.40;;
79403;SDS011;68858;48.642;9.142;2023-10-19T03:42:32;6.60;;;5.93;;
79403;SDS011;68858;48.642;9.142;2023-10-19T03:44:58;8.40;;;7.60;;
79403;SDS011;68858;48.642;9.142;2023-10-19T03:47:25;9.20;;;7.93;;
79403;SDS011;68858;48.642;9.142;2023-10-19T03:50:03;8.27;;;7.43;;
79403;SDS011;68858;48.642;9.142;2023-10-19T03:52:32;7.83;;;7.03;;
79403;SDS011;68858;48.642;9.142;2023-10-19T03:55:03;8.10;;;6.43;;
79403;SDS011;68858;48.642;9.142;2023-10-19T03:57:36;7.90;;;6.33;;
79403;SDS011;68858;48.642;9.142;2023-10-19T04:00:06;7.83;;;5.47;;
79403;SDS011;68858;48.642;9.142;2023-10-19T04:02:36;5.70;;;5.10;;
79403;SDS011;68858;48.642;9.142;2023-10-19T04:05:03;7.40;;;5.20;;
79403;SDS011;68858;48.642;9.142;2023-10-19T04:07:29;6.27;;;5.50;;
79403;SDS011;68858;48.642;9.142;2023-10-19T04:09:58;5.57;;;4.90;;
79403;SDS011;68858;48.642;9.142;2023-10-19T04:12:36;5.97;;;5.00;;
79403;SDS011;68858;48.642;9.142;2023-10-19T04:15:06;5.17;;;4.67;;
79403;SDS011;68858;48.642;9.142;2023-10-19T04:17:51;5.40;;;4.90;;
79403;SDS011;68858;48.642;9.142;2023-10-19T04:20:20;6.20;;;5.57;;
79403;SDS011;68858;48.642;9.142;2023-10-19T04:22:46;5.37;;;4.77;;
79403;SDS011;68858;48.642;9.142;2023-10-19T04:25:12;6.60;;;5.00;;
79403;SDS011;68858;48.642;9.142;2023-10-19T04:27:42;6.20;;;5.20;;
79403;SDS011;68858;48.642;9.142;2023-10-19T04:30:08;6.20;;;5.60;;
79403;SDS011;68858;48.642;9.142;2023-10-19T04:32:41;5.50;;;5.00;;
79403;SDS011;68858;48.642;9.142;2023-10-19T04:35:16;6.37;;;4.87;;
79403;SDS011;68858;48.642;9.142;2023-10-19T04:37:53;6.90;;;5.67;;
79403;SDS011;68858;48.642;9.142;2023-10-19T04:40:19;6.33;;;5.50;;
79403;SDS011;68858;48.642;9.142;2023-10-19T04:42:46;7.07;;;6.27;;
79403;SDS011;68858;48.642;9.142;2023-10-19T04:45:11;7.87;;;6.13;;
79403;SDS011;68858;48.642;9.142;2023-10-19T04:47:37;8.13;;;5.67;;
79403;SDS011;68858;48.642;9.142;2023-10-19T04:50:03;6.83;;;5.77;;
79403;SDS011;68858;48.642;9.142;2023-10-19T04:52:32;6.63;;;5.93;;
79403;SDS011;68858;48.642;9.142;2023-10-19T04:54:58;7.07;;;6.20;;
79403;SDS011;68858;48.642;9.142;2023-10-19T04:57:24;7.73;;;6.83;;
79403;SDS011;68858;48.642;9.142;2023-10-19T04:59:51;8.23;;;6.23;;
79403;SDS011;68858;48.642;9.142;2023-10-19T05:02:16;8.30;;;6.13;;
79403;SDS011;68858;48.642;9.142;2023-10-19T05:04:42;7.40;;;6.57;;
79403;SDS011;68858;48.642;9.142;2023-10-19T05:07:08;7.00;;;6.30;;
79403;SDS011;68858;48.642;9.142;2023-10-19T05:09:37;7.23;;;6.00;;
79403;SDS011;68858;48.642;9.142;2023-10-19T05:12:05;7.63;;;6.50;;
79403;SDS011;68858;48.642;9.142;2023-10-19T05:14:34;8.30;;;6.13;;
79403;SDS011;68858;48.642;9.142;2023-10-19T05:17:00;7.67;;;6.67;;
79403;SDS011;68858;48.642;9.142;2023-10-19T05:19:33;8.03;;;5.90;;
79403;SDS011;68858;48.642;9.142;2023-10-19T05:22:00;7.47;;;6.20;;
79403;SDS011;68858;48.642;9.142;2023-10-19T05:24:27;8.60;;;6.57;;
79403;SDS011;68858;48.642;9.142;2023-10-19T05:26:55;6.83;;;5.67;;
79403;SDS011;68858;48.642;9.142;2023-10-19T05:29:21;7.33;;;6.10;;
79403;SDS011;68858;48.642;9.142;2023-10-19T05:31:47;8.43;;;5.67;;
79403;SDS011;68858;48.642;9.142;2023-10-19T05:34:13;7.40;;;5.83;;
79403;SDS011;68858;48.642;9.142;2023-10-19T05:36:38;6.50;;;5.20;;
79403;SDS011;68858;48.642;9.142;2023-10-19T05:39:05;5.73;;;4.93;;
79403;SDS011;68858;48.642;9.142;2023-10-19T05:41:33;6.80;;;5.23;;
79403;SDS011;68858;48.642;9.142;2023-10-19T05:43:59;8.30;;;5.27;;
79403;SDS011;68858;48.642;9.142;2023-10-19T05:46:24;6.20;;;5.40;;
79403;SDS011;68858;48.642;9.142;2023-10-19T05:48:50;5.30;;;4.80;;
79403;SDS011;68858;48.642;9.142;2023-10-19T05:51:16;7.03;;;4.97;;
79403;SDS011;68858;48.642;9.142;2023-10-19T05:53:42;4.83;;;4.43;;
79403;SDS011;68858;48.642;9.142;2023-10-19T05:56:09;6.33;;;4.40;;
79403;SDS011;68858;48.642;9.142;2023-10-19T05:58:35;6.30;;;5.03;;
79403;SDS011;68858;48.642;9.142;2023-10-19T06:01:00;5.50;;;4.93;;
79403;SDS011;68858;48.642;9.142;2023-10-19T06:03:25;5.50;;;5.00;;
79403;SDS011;68858;48.642;9.142;2023-10-19T06:05:51;5.33;;;4.73;;
79403;SDS011;68858;48.642;9.142;2023-10-19T06:08:19;6.20;;;5.13;;
79403;SDS011;68858;48.642;9.142;2023-10-19T06:10:48;5.63;;;4.73;;
79403;SDS011;68858;48.642;9.142;2023-10-19T06:13:15;4.93;;;4.53;;
79403;SDS011;68858;48.642;9.142;2023-10-19T06:15:44;4.73;;;4.20;;
79403;SDS011;68858;48.642;9.142;2023-10-19T06:18:09;5.00;;;4.57;;
79403;SDS011;68858;48.642;9.142;2023-10-19T06:20:36;7.10;;;4.47;;
79403;SDS011;68858;48.642;9.142;2023-10-19T06:23:01;4.90;;;4.40;;
79403;SDS011;68858;48.642;9.142;2023-10-19T06:25:31;5.00;;;4.43;;
79403;SDS011;68858;48.642;9.142;2023-10-19T06:27:57;6.13;;;4.30;;
79403;SDS011;68858;48.642;9.142;2023-10-19T06:30:24;4.63;;;4.13;;
79403;SDS011;68858;48.642;9.142;2023-10-19T06:32:51;5.33;;;4.03;;
79403;SDS011;68858;48.642;9.142;2023-10-19T06:35:21;8.83;;;6.10;;
79403;SDS011;68858;48.642;9.142;2023-10-19T06:37:47;7.97;;;5.83;;
79403;SDS011;68858;48.642;9.142;2023-10-19T06:40:13;7.43;;;5.80;;
79403;SDS011;68858;48.642;9.142;2023-10-19T06:42:43;8.00;;;5.73;;
79403;SDS011;68858;48.642;9.142;2023-10-19T06:45:10;11.10;;;7.40;;
79403;SDS011;68858;48.642;9.142;2023-10-19T06:47:39;10.37;;;7.97;;
79403;SDS011;68858;48.642;9.142;2023-10-19T06:50:13;9.73;;;7.03;;
79403;SDS011;68858;48.642;9.142;2023-10-19T06:52:41;8.57;;;6.10;;
79403;SDS011;68858;48.642;9.142;2023-10-19T06:55:08;9.73;;;6.33;;
79403;SDS011;68858;48.642;9.142;2023-10-19T06:57:39;8.50;;;5.80;;
79403;SDS011;68858;48.642;9.142;2023-10-19T07:00:14;5.93;;;4.63;;
79403;SDS011;68858;48.642;9.142;2023-10-19T07:02:45;6.40;;;5.00;;
79403;SDS011;68858;48.642;9.142;2023-10-19T07:05:13;8.27;;;5.33;;
79403;SDS011;68858;48.642;9.142;2023-10-19T07:07:43;6.67;;;5.50;;
79403;SDS011;68858;48.642;9.142;2023-10-19T07:10:11;6.83;;;6.13;;
79403;SDS011;68858;48.642;9.142;2023-10-19T07:16:01;6.97;;;6.27;;
79403;SDS011;68858;48.642;9.142;2023-10-19T07:18:28;6.50;;;5.43;;
79403;SDS011;68858;48.642;9.142;2023-10-19T07:20:54;6.77;;;5.83;;
79403;SDS011;68858;48.642;9.142;2023-10-19T07:23:27;7.50;;;5.97;;
79403;SDS011;68858;48.642;9.142;2023-10-19T07:25:53;7.33;;;5.50;;
79403;SDS011;68858;48.642;9.142;2023-10-19T07:28:20;7.07;;;5.90;;
79403;SDS011;68858;48.642;9.142;2023-10-19T07:30:47;6.20;;;5.60;;
79403;SDS011;68858;48.642;9.142;2023-10-19T07:33:13;7.40;;;6.70;;
79403;SDS011;68858;48.642;9.142;2023-10-19T07:35:42;6.43;;;5.83;;
79403;SDS011;68858;48.642;9.142;2023-10-19T07:38:08;9.20;;;5.50;;
79403;SDS011;68858;48.642;9.142;2023-10-19T07:40:35;7.57;;;5.23;;
79403;SDS011;68858;48.642;9.142;2023-10-19T07:43:00;6.20;;;5.60;;
79403;SDS011;68858;48.642;9.142;2023-10-19T07:45:26;6.20;;;5.43;;
79403;SDS011;68858;48.642;9.142;2023-10-19T07:47:51;6.10;;;5.33;;
79403;SDS011;68858;48.642;9.142;2023-10-19T07:50:18;7.27;;;5.90;;
79403;SDS011;68858;48.642;9.142;2023-10-19T07:52:47;9.77;;;8.87;;
79403;SDS011;68858;48.642;9.142;2023-10-19T07:55:15;10.13;;;9.20;;
79403;SDS011;68858;48.642;9.142;2023-10-19T07:57:41;9.03;;;8.33;;
79403;SDS011;68858;48.642;9.142;2023-10-19T08:00:07;9.57;;;8.67;;
79403;SDS011;68858;48.642;9.142;2023-10-19T08:02:34;11.17;;;8.70;;
79403;SDS011;68858;48.642;9.142;2023-10-19T08:05:14;10.77;;;9.70;;
79403;SDS011;68858;48.642;9.142;2023-10-19T08:07:40;10.43;;;9.43;;
79403;SDS011;68858;48.642;9.142;2023-10-19T08:10:08;11.23;;;9.90;;
79403;SDS011;68858;48.642;9.142;2023-10-19T08:12:35;10.27;;;9.27;;
79403;SDS011;68858;48.642;9.142;2023-10-19T08:15:01;10.53;;;9.53;;
79403;SDS011;68858;48.642;9.142;2023-10-19T08:17:28;9.23;;;8.27;;
79403;SDS011;68858;48.642;9.142;2023-10-19T08:19:54;9.40;;;8.23;;
79403;SDS011;68858;48.642;9.142;2023-10-19T08:22:20;10.47;;;9.37;;
79403;SDS011;68858;48.642;9.142;2023-10-19T08:24:45;9.60;;;8.70;;
79403;SDS011;68858;48.642;9.142;2023-10-19T08:27:15;10.47;;;9.47;;
79403;SDS011;68858;48.642;9.142;2023-10-19T08:29:42;9.70;;;8.80;;
79403;SDS011;68858;48.642;9.142;2023-10-19T08:32:09;9.50;;;8.60;;
79403;SDS011;68858;48.642;9.142;2023-10-19T08:34:35;9.37;;;8.07;;
79403;SDS011;68858;48.642;9.142;2023-10-19T08:37:01;9.17;;;8.27;;
79403;SDS011;68858;48.642;9.142;2023-10-19T08:39:27;8.67;;;7.70;;
79403;SDS011;68858;48.642;9.142;2023-10-19T08:41:53;9.07;;;8.13;;
79403;SDS011;68858;48.642;9.142;2023-10-19T08:44:20;11.10;;;7.63;;
79403;SDS011;68858;48.642;9.142;2023-10-19T08:46:46;8.93;;;8.00;;
79403;SDS011;68858;48.642;9.142;2023-10-19T08:49:14;8.67;;;7.70;;
79403;SDS011;68858;48.642;9.142;2023-10-19T08:51:43;11.17;;;7.70;;
79403;SDS011;68858;48.642;9.142;2023-10-19T08:54:12;8.07;;;7.23;;
79403;SDS011;68858;48.642;9.142;2023-10-19T08:56:39;8.50;;;7.70;;
79403;SDS011;68858;48.642;9.142;2023-10-19T08:59:06;9.67;;;7.60;;
79403;SDS011;68858;48.642;9.142;2023-10-19T09:01:32;11.70;;;7.67;;
79403;SDS011;68858;48.642;9.142;2023-10-19T09:04:00;9.13;;;6.80;;
79403;SDS011;68858;48.642;9.142;2023-10-19T09:06:26;7.20;;;6.40;;
79403;SDS011;68858;48.642;9.142;2023-10-19T09:08:54;6.13;;;5.03;;
79403;SDS011;68858;48.642;9.142;2023-10-19T09:11:20;7.17;;;6.07;;
79403;SDS011;68858;48.642;9.142;2023-10-19T09:13:49;7.27;;;5.73;;
79403;SDS011;68858;48.642;9.142;2023-10-19T09:16:16;6.80;;;6.10;;
79403;SDS011;68858;48.642;9.142;2023-10-19T09:18:42;6.80;;;6.10;;
79403;SDS011;68858;48.642;9.142;2023-10-19T09:21:08;6.00;;;4.73;;
79403;SDS011;68858;48.642;9.142;2023-10-19T09:23:36;6.17;;;5.47;;
79403;SDS011;68858;48.642;9.142;2023-10-19T09:26:03;5.57;;;5.07;;
79403;SDS011;68858;48.642;9.142;2023-10-19T09:28:30;5.40;;;4.90;;
79403;SDS011;68858;48.642;9.142;2023-10-19T09:30:58;5.27;;;4.70;;
79403;SDS011;68858;48.642;9.142;2023-10-19T09:33:25;5.27;;;4.80;;
79403;SDS011;68858;48.642;9.142;2023-10-19T09:35:52;5.17;;;4.67;;
79403;SDS011;68858;48.642;9.142;2023-10-19T09:38:18;6.37;;;4.73;;
79403;SDS011;68858;48.642;9.142;2023-10-19T09:40:53;8.70;;;5.17;;
79403;SDS011;68858;48.642;9.142;2023-10-19T09:43:24;5.67;;;5.07;;
79403;SDS011;68858;48.642;9.142;2023-10-19T09:45:56;5.77;;;5.17;;
79403;SDS011;68858;48.642;9.142;2023-10-19T09:48:24;8.27;;;5.60;;
79403;SDS011;68858;48.642;9.142;2023-10-19T09:50:53;5.87;;;5.00;;
79403;SDS011;68858;48.642;9.142;2023-10-19T09:53:25;5.70;;;4.90;;
79403;SDS011;68858;48.642;9.142;2023-10-19T09:55:51;6.00;;;4.90;;
79403;SDS011;68858;48.642;9.142;2023-10-19T09:58:20;6.47;;;5.27;;
79403;SDS011;68858;48.642;9.142;2023-10-19T10:00:47;7.87;;;5.73;;
79403;SDS011;68858;48.642;9.142;2023-10-19T10:06:08;5.87;;;5.27;;
79403;SDS011;68858;48.642;9.142;2023-10-19T10:08:38;5.47;;;4.90;;
79403;SDS011;68858;48.642;9.142;2023-10-19T10:11:17;4.83;;;4.00;;
79403;SDS011;68858;48.642;9.142;2023-10-19T10:13:44;4.53;;;4.13;;
79403;SDS011;68858;48.642;9.142;2023-10-19T10:16:15;5.73;;;4.73;;
79403;SDS011;68858;48.642;9.142;2023-10-19T10:18:42;5.83;;;5.33;;
79403;SDS011;68858;48.642;9.142;2023-10-19T10:21:13;7.27;;;6.57;;
79403;SDS011;68858;48.642;9.142;2023-10-19T10:23:49;7.33;;;6.47;;
79403;SDS011;68858;48.642;9.142;2023-10-19T10:26:16;7.80;;;6.73;;
79403;SDS011;68858;48.642;9.142;2023-10-19T10:28:46;8.30;;;7.40;;
79403;SDS011;68858;48.642;9.142;2023-10-19T10:33:50;7.93;;;7.07;;
79403;SDS011;68858;48.642;9.142;2023-10-19T10:36:17;8.43;;;7.60;;
79403;SDS011;68858;48.642;9.142;2023-10-19T10:38:44;8.00;;;7.13;;
79403;SDS011;68858;48.642;9.142;2023-10-19T10:41:11;8.37;;;6.83;;
79403;SDS011;68858;48.642;9.142;2023-10-19T10:43:49;6.27;;;5.67;;
79403;SDS011;68858;48.642;9.142;2023-10-19T10:46:18;6.67;;;5.97;;
79403;SDS011;68858;48.642;9.142;2023-10-19T10:48:44;7.87;;;6.00;;
79403;SDS011;68858;48.642;9.142;2023-10-19T10:51:23;6.33;;;5.47;;
79403;SDS011;68858;48.642;9.142;2023-10-19T10:53:50;5.60;;;5.10;;
79403;SDS011;68858;48.642;9.142;2023-10-19T10:56:17;8.70;;;4.70;;
79403;SDS011;68858;48.642;9.142;2023-10-19T10:58:44;4.43;;;4.03;;
79403;SDS011;68858;48.642;9.142;2023-10-19T11:01:10;4.27;;;3.87;;
79403;SDS011;68858;48.642;9.142;2023-10-19T11:03:36;5.07;;;4.03;;
79403;SDS011;68858;48.642;9.142;2023-10-19T11:06:03;4.20;;;3.50;;
79403;SDS011;68858;48.642;9.142;2023-10-19T11:08:29;3.37;;;3.10;;
79403;SDS011;68858;48.642;9.142;2023-10-19T11:11:01;3.93;;;2.90;;
79403;SDS011;68858;48.642;9.142;2023-10-19T11:13:36;4.23;;;3.10;;
79403;SDS011;68858;48.642;9.142;2023-10-19T11:16:05;3.30;;;3.00;;
79403;SDS011;68858;48.642;9.142;2023-10-19T11:18:35;2.80;;;2.57;;
79403;SDS011;68858;48.642;9.142;2023-10-19T11:21:14;3.33;;;2.93;;
79403;SDS011;68858;48.642;9.142;2023-10-19T11:26:10;3.40;;;2.87;;
79403;SDS011;68858;48.642;9.142;2023-10-19T11:28:36;4.80;;;3.47;;
79403;SDS011;68858;48.642;9.142;2023-10-19T11:31:19;4.07;;;3.33;;
79403;SDS011;68858;48.642;9.142;2023-10-19T11:33:48;4.87;;;3.30;;
79403;SDS011;68858;48.642;9.142;2023-10-19T11:36:15;3.83;;;3.43;;
79403;SDS011;68858;48.642;9.142;2023-10-19T11:38:43;4.10;;;3.07;;
79403;SDS011;68858;48.642;9.142;2023-10-19T11:41:12;4.63;;;3.90;;
79403;SDS011;68858;48.642;9.142;2023-10-19T11:43:39;4.97;;;3.63;;
79403;SDS011;68858;48.642;9.142;2023-10-19T11:46:05;5.57;;;3.80;;
79403;SDS011;68858;48.642;9.142;2023-10-19T11:48:34;4.93;;;4.10;;
79403;SDS011;68858;48.642;9.142;2023-10-19T11:51:01;4.50;;;3.40;;
79403;SDS011;68858;48.642;9.142;2023-10-19T11:53:29;3.60;;;3.30;;
79403;SDS011;68858;48.642;9.142;2023-10-19T11:56:06;2.80;;;2.57;;
79403;SDS011;68858;48.642;9.142;2023-10-19T11:58:33;3.90;;;3.13;;
79403;SDS011;68858;48.642;9.142;2023-10-19T12:01:00;5.17;;;4.50;;
79403;SDS011;68858;48.642;9.142;2023-10-19T12:03:26;5.67;;;4.57;;
79403;SDS011;68858;48.642;9.142;2023-10-19T12:05:52;4.83;;;4.33;;
79403;SDS011;68858;48.642;9.142;2023-10-19T12:08:21;5.00;;;4.47;;
79403;SDS011;68858;48.642;9.142;2023-10-19T12:10:47;4.13;;;3.73;;
79403;SDS011;68858;48.642;9.142;2023-10-19T12:13:12;3.73;;;3.20;;
79403;SDS011;68858;48.642;9.142;2023-10-19T12:15:38;3.73;;;3.43;;
79403;SDS011;68858;48.642;9.142;2023-10-19T12:18:03;4.63;;;3.10;;
79403;SDS011;68858;48.642;9.142;2023-10-19T12:20:30;4.13;;;3.10;;
79403;SDS011;68858;48.642;9.142;2023-10-19T12:22:57;4.17;;;3.50;;
79403;SDS011;68858;48.642;9.142;2023-10-19T12:25:23;4.00;;;3.60;;
79403;SDS011;68858;48.642;9.142;2023-10-19T12:27:54;3.90;;;3.53;;
79403;SDS011;68858;48.642;9.142;2023-10-19T12:30:20;3.97;;;3.30;;
79403;SDS011;68858;48.642;9.142;2023-10-19T12:32:47;4.33;;;3.60;;
79403;SDS011;68858;48.642;9.142;2023-10-19T12:35:14;3.77;;;3.47;;
79403;SDS011;68858;48.642;9.142;2023-10-19T12:37:41;5.10;;;4.33;;
79403;SDS011;68858;48.642;9.142;2023-10-19T12:40:14;5.67;;;4.53;;
79403;SDS011;68858;48.642;9.142;2023-10-19T12:42:52;6.80;;;5.80;;
79403;SDS011;68858;48.642;9.142;2023-10-19T12:45:20;8.23;;;7.43;;
79403;SDS011;68858;48.642;9.142;2023-10-19T12:47:46;8.87;;;7.40;;
79403;SDS011;68858;48.642;9.142;2023-10-19T12:50:13;8.33;;;7.27;;
79403;SDS011;68858;48.642;9.142;2023-10-19T12:52:39;8.17;;;7.37;;
79403;SDS011;68858;48.642;9.142;2023-10-19T12:55:05;6.77;;;6.17;;
79403;SDS011;68858;48.642;9.142;2023-10-19T12:57:32;6.33;;;5.73;;
79403;SDS011;68858;48.642;9.142;2023-10-19T12:59:58;5.80;;;5.30;;
79403;SDS011;68858;48.642;9.142;2023-10-19T13:02:31;5.80;;;5.20;;
79403;SDS011;68858;48.642;9.142;2023-10-19T13:04:57;6.93;;;5.30;;
79403;SDS011;68858;48.642;9.142;2023-10-19T13:07:24;6.20;;;5.40;;
79403;SDS011;68858;48.642;9.142;2023-10-19T13:09:51;5.30;;;4.80;;
79403;SDS011;68858;48.642;9.142;2023-10-19T13:12:16;5.27;;;4.60;;
79403;SDS011;68858;48.642;9.142;2023-10-19T13:14:41;5.50;;;5.00;;
79403;SDS011;68858;48.642;9.142;2023-10-19T13:17:09;9.13;;;8.13;;
79403;SDS011;68858;48.642;9.142;2023-10-19T13:19:35;14.17;;;10.67;;
79403;SDS011;68858;48.642;9.142;2023-10-19T13:22:02;11.33;;;10.13;;
79403;SDS011;68858;48.642;9.142;2023-10-19T13:24:30;9.17;;;6.53;;
79403;SDS011;68858;48.642;9.142;2023-10-19T13:26:56;7.20;;;6.30;;
79403;SDS011;68858;48.642;9.142;2023-10-19T13:29:22;7.47;;;6.67;;
79403;SDS011;68858;48.642;9.142;2023-10-19T13:31:49;8.90;;;7.97;;
79403;SDS011;68858;48.642;9.142;2023-10-19T13:34:15;9.30;;;8.23;;
79403;SDS011;68858;48.642;9.142;2023-10-19T13:36:40;9.27;;;8.27;;
79403;SDS011;68858;48.642;9.142;2023-10-19T13:39:06;9.90;;;8.53;;
79403;SDS011;68858;48.642;9.142;2023-10-19T13:41:38;9.07;;;8.17;;
79403;SDS011;68858;48.642;9.142;2023-10-19T13:44:03;7.50;;;6.90;;
79403;SDS011;68858;48.642;9.142;2023-10-19T13:46:29;6.63;;;6.03;;
79403;SDS011;68858;48.642;9.142;2023-10-19T13:48:55;7.67;;;6.97;;
79403;SDS011;68858;48.642;9.142;2023-10-19T13:51:21;6.70;;;6.03;;
79403;SDS011;68858;48.642;9.142;2023-10-19T13:53:47;9.93;;;8.93;;
79403;SDS011;68858;48.642;9.142;2023-10-19T13:56:14;10.20;;;9.17;;
79403;SDS011;68858;48.642;9.142;2023-10-19T13:58:40;10.30;;;9.00;;
79403;SDS011;68858;48.642;9.142;2023-10-19T14:01:08;9.83;;;8.90;;
79403;SDS011;68858;48.642;9.142;2023-10-19T14:03:35;8.60;;;7.80;;
79403;SDS011;68858;48.642;9.142;2023-10-19T14:06:02;8.63;;;7.70;;
79403;SDS011;68858;48.642;9.142;2023-10-19T14:08:28;9.20;;;8.30;;
79403;SDS011;68858;48.642;9.142;2023-10-19T14:10:53;12.77;;;9.93;;
79403;SDS011;68858;48.642;9.142;2023-10-19T14:13:18;16.57;;;12.10;;
79403;SDS011;68858;48.642;9.142;2023-10-19T14:15:44;13.83;;;11.83;;
79403;SDS011;68858;48.642;9.142;2023-10-19T14:18:10;11.67;;;10.40;;
79403;SDS011;68858;48.642;9.142;2023-10-19T14:20:36;9.10;;;8.17;;
79403;SDS011;68858;48.642;9.142;2023-10-19T14:23:04;7.43;;;6.63;;
79403;SDS011;68858;48.642;9.142;2023-10-19T14:25:30;6.27;;;5.67;;
79403;SDS011;68858;48.642;9.142;2023-10-19T14:27:55;7.13;;;6.03;;
79403;SDS011;68858;48.642;9.142;2023-10-19T14:30:25;7.17;;;6.50;;
79403;SDS011;68858;48.642;9.142;2023-10-19T14:32:51;10.10;;;9.10;;
79403;SDS011;68858;48.642;9.142;2023-10-19T14:35:18;18.63;;;14.33;;
79403;SDS011;68858;48.642;9.142;2023-10-19T14:37:46;27.70;;;17.67;;
79403;SDS011;68858;48.642;9.142;2023-10-19T14:40:15;66.03;;;25.43;;
79403;SDS011;68858;48.642;9.142;2023-10-19T14:42:46;11.70;;;10.50;;
79403;SDS011;68858;48.642;9.142;2023-10-19T14:45:13;8.93;;;8.03;;
79403;SDS011;68858;48.642;9.142;2023-10-19T14:47:41;8.57;;;7.73;;
79403;SDS011;68858;48.642;9.142;2023-10-19T14:52:36;12.07;;;10.50;;
79403;SDS011;68858;48.642;9.142;2023-10-19T14:55:02;7.63;;;6.93;;
79403;SDS011;68858;48.642;9.142;2023-10-19T14:57:31;5.50;;;5.00;;
79403;SDS011;68858;48.642;9.142;2023-10-19T14:59:58;12.47;;;11.17;;
79403;SDS011;68858;48.642;9.142;2023-10-19T15:02:33;17.50;;;14.73;;
79403;SDS011;68858;48.642;9.142;2023-10-19T15:05:00;20.07;;;18.00;;